createdAt,value
2023-09-30T00:04:46.781Z,18.49
2023-09-30T00:09:53.863Z,18.46
2023-09-30T00:15:01.037Z,18.48
2023-09-30T00:20:10.717Z,18.51
2023-09-30T00:25:18.052Z,18.53
2023-09-30T00:30:25.686Z,18.56
2023-09-30T00:35:34.057Z,18.58
2023-09-30T00:40:41.730Z,18.55
2023-09-30T00:45:49.241Z,18.49
2023-09-30T00:50:57.397Z,18.48
2023-09-30T00:56:04.870Z,18.51
2023-09-30T01:01:12.999Z,18.55
2023-09-30T01:06:20.519Z,18.59
2023-09-30T01:11:26.626Z,18.62
2023-09-30T01:16:33.929Z,18.62
2023-09-30T01:21:42.948Z,18.60
2023-09-30T01:26:48.543Z,18.59
2023-09-30T01:31:55.925Z,18.58
2023-09-30T01:37:03.482Z,18.58
2023-09-30T01:42:10.653Z,18.61
2023-09-30T01:47:18.006Z,18.64
2023-09-30T01:52:25.271Z,18.65
2023-09-30T01:57:32.523Z,18.63
2023-09-30T02:02:39.835Z,18.60
2023-09-30T02:07:46.993Z,18.56
2023-09-30T02:12:54.202Z,18.52
2023-09-30T02:18:01.927Z,18.46
2023-09-30T02:23:09.140Z,18.40
2023-09-30T02:28:16.512Z,18.35
2023-09-30T02:33:23.781Z,18.32
2023-09-30T02:38:31.371Z,18.28
2023-09-30T02:43:36.937Z,18.22
2023-09-30T02:48:44.212Z,18.14
2023-09-30T02:53:52.059Z,18.06
2023-09-30T02:59:00.822Z,17.97
2023-09-30T03:04:08.912Z,17.94
2023-09-30T03:09:16.569Z,17.97
2023-09-30T03:14:23.824Z,18.00
2023-09-30T03:19:31.294Z,18.05
2023-09-30T03:24:38.645Z,18.10
2023-09-30T03:29:46.017Z,18.16
2023-09-30T03:34:54.577Z,18.18
2023-09-30T03:40:13.062Z,18.19
2023-09-30T03:45:20.865Z,18.17
2023-09-30T03:50:31.480Z,18.15
2023-09-30T03:55:39.513Z,18.12
2023-09-30T04:00:47.526Z,18.11
2023-09-30T04:05:54.753Z,18.13
2023-09-30T04:11:01.869Z,18.15
2023-09-30T04:16:09.333Z,18.15
2023-09-30T04:21:15.053Z,18.10
2023-09-30T04:26:22.394Z,17.99
2023-09-30T04:31:30.122Z,17.89
2023-09-30T04:36:37.562Z,17.82
2023-09-30T04:41:44.685Z,17.77
2023-09-30T04:46:51.880Z,17.70
2023-09-30T04:51:59.036Z,17.66
2023-09-30T04:57:06.748Z,17.63
2023-09-30T05:02:16.234Z,17.59
2023-09-30T05:07:23.900Z,17.55
2023-09-30T05:12:29.444Z,17.49
2023-09-30T05:17:36.583Z,17.43
2023-09-30T05:22:47.160Z,17.35
2023-09-30T05:27:55.280Z,17.25
2023-09-30T05:33:02.564Z,17.16
2023-09-30T05:38:11.393Z,17.07
2023-09-30T05:43:18.513Z,17.02
2023-09-30T05:48:25.880Z,16.99
2023-09-30T05:53:33.955Z,16.94
2023-09-30T05:58:42.255Z,16.87
2023-09-30T06:03:49.736Z,16.84
2023-09-30T06:08:59.380Z,16.88
2023-09-30T06:14:07.679Z,16.97
2023-09-30T06:19:19.187Z,17.02
2023-09-30T06:24:27.154Z,17.03
2023-09-30T06:29:35.013Z,17.03
2023-09-30T06:34:42.128Z,17.08
2023-09-30T06:39:49.909Z,17.17
2023-09-30T06:44:57.087Z,17.11
2023-09-30T06:50:09.106Z,16.99
2023-09-30T06:55:17.929Z,16.88
2023-09-30T07:00:27.018Z,16.80
2023-09-30T07:05:34.547Z,16.69
2023-09-30T07:10:41.611Z,16.59
2023-09-30T07:15:50.723Z,16.59
2023-09-30T07:20:58.306Z,16.84
2023-09-30T07:26:05.574Z,17.36
2023-09-30T07:31:13.520Z,17.87
2023-09-30T07:36:21.091Z,18.25
2023-09-30T07:41:28.360Z,18.81
2023-09-30T07:46:35.752Z,19.29
2023-09-30T07:51:43.375Z,19.91
2023-09-30T07:56:50.682Z,20.37
2023-09-30T08:01:58.736Z,20.70
2023-09-30T08:07:06.383Z,21.13
2023-09-30T08:12:13.870Z,21.60
2023-09-30T08:17:20.952Z,21.97
2023-09-30T08:22:29.543Z,22.31
2023-09-30T08:27:44.542Z,22.71
2023-09-30T08:32:53.069Z,22.40
2023-09-30T08:38:06.183Z,21.98
2023-09-30T08:43:20.157Z,21.98
2023-09-30T08:48:30.764Z,22.02
2023-09-30T08:53:39.628Z,22.25
2023-09-30T08:58:47.803Z,22.68
2023-09-30T09:03:55.525Z,23.01
2023-09-30T09:09:19.579Z,22.75
2023-09-30T09:14:41.273Z,22.53
2023-09-30T09:20:05.862Z,22.02
2023-09-30T09:25:13.928Z,21.48
2023-09-30T09:30:24.333Z,21.06
2023-09-30T09:35:34.231Z,20.95
2023-09-30T09:40:42.183Z,20.54
2023-09-30T09:45:50.711Z,20.34
2023-09-30T09:50:58.108Z,20.16
2023-09-30T09:56:08.506Z,19.95
2023-09-30T10:01:16.269Z,19.92
2023-09-30T10:06:23.802Z,20.11
2023-09-30T10:11:29.465Z,20.07
2023-09-30T10:16:53.753Z,19.91
2023-09-30T10:22:16.831Z,19.89
2023-09-30T10:27:34.394Z,19.96
2023-09-30T10:32:58.526Z,19.84
2023-09-30T10:38:17.613Z,19.77
2023-09-30T10:43:33.153Z,19.80
2023-09-30T10:48:39.952Z,19.87
2023-09-30T10:53:46.806Z,19.75
2023-09-30T10:58:53.968Z,19.59
2023-09-30T11:04:06.038Z,19.42
2023-09-30T11:09:14.618Z,19.44
2023-09-30T11:14:21.218Z,19.64
2023-09-30T11:19:27.187Z,19.75
2023-09-30T11:24:35.043Z,19.69
2023-09-30T11:29:50.650Z,19.59
2023-09-30T11:34:56.728Z,19.58
2023-09-30T11:40:12.359Z,19.57
2023-09-30T11:45:24.894Z,19.69
2023-09-30T11:50:47.454Z,19.82
2023-09-30T11:55:56.268Z,19.90
2023-09-30T12:01:02.286Z,19.84
2023-09-30T12:06:07.941Z,19.71
2023-09-30T12:11:14.465Z,19.65
2023-09-30T12:16:20.398Z,19.67
2023-09-30T12:21:25.991Z,19.75
2023-09-30T12:26:32.121Z,19.76
2023-09-30T12:31:50.216Z,19.73
2023-09-30T12:36:59.214Z,19.79
2023-09-30T12:42:10.391Z,19.86
2023-09-30T12:47:16.195Z,19.96
2023-09-30T12:52:21.762Z,19.94
2023-09-30T12:57:27.627Z,20.00
2023-09-30T13:02:34.248Z,20.05
2023-09-30T13:07:39.972Z,20.07
2023-09-30T13:12:46.042Z,20.12
2023-09-30T13:17:51.750Z,20.17
2023-09-30T13:22:58.719Z,20.15
2023-09-30T13:28:04.497Z,20.02
2023-09-30T13:33:10.403Z,19.86
2023-09-30T13:38:17.666Z,19.75
2023-09-30T13:43:23.455Z,19.79
2023-09-30T13:48:29.232Z,19.82
2023-09-30T13:53:35.252Z,19.87
2023-09-30T13:58:40.943Z,19.83
2023-09-30T14:03:48.468Z,19.78
2023-09-30T14:08:55.084Z,19.80
2023-09-30T14:14:02.147Z,19.82
2023-09-30T14:19:07.771Z,19.68
2023-09-30T14:24:14.304Z,19.48
2023-09-30T14:29:19.902Z,19.39
2023-09-30T14:34:26.404Z,19.36
2023-09-30T14:39:32.210Z,19.27
2023-09-30T14:44:37.883Z,19.21
2023-09-30T14:49:43.464Z,19.11
2023-09-30T14:54:51.928Z,19.06
2023-09-30T14:59:59.536Z,19.00
2023-09-30T15:05:05.789Z,18.93
2023-09-30T15:10:13.434Z,18.87
2023-09-30T15:15:19.135Z,18.76
2023-09-30T15:20:26.583Z,18.64
2023-09-30T15:25:32.661Z,18.50
2023-09-30T15:30:42.264Z,18.36
2023-09-30T15:35:49.224Z,18.26
2023-09-30T15:40:58.906Z,18.16
2023-09-30T15:46:05.806Z,18.04
2023-09-30T15:51:11.905Z,17.93
2023-09-30T15:56:17.848Z,17.82
2023-09-30T16:01:24.985Z,17.68
2023-09-30T16:06:31.000Z,17.56
2023-09-30T16:11:36.655Z,17.45
2023-09-30T16:16:59.574Z,17.32
2023-09-30T16:22:05.611Z,17.19
2023-09-30T16:27:11.600Z,17.05
2023-09-30T16:32:17.337Z,16.91
2023-09-30T16:37:22.905Z,16.76
2023-09-30T16:42:30.351Z,16.61
2023-09-30T16:47:38.786Z,16.47
2023-09-30T16:52:44.252Z,16.33
2023-09-30T16:57:50.006Z,16.20
2023-09-30T17:02:55.737Z,16.06
2023-09-30T17:08:01.521Z,15.91
2023-09-30T17:13:08.012Z,15.73
2023-09-30T17:18:16.491Z,15.58
2023-09-30T17:23:22.354Z,15.44
2023-09-30T17:28:28.008Z,15.27
2023-09-30T17:33:33.787Z,15.11
2023-09-30T17:38:40.630Z,14.92
2023-09-30T17:43:48.827Z,14.67
2023-09-30T17:48:54.566Z,14.47
2023-09-30T17:54:00.659Z,14.30
2023-09-30T17:59:06.438Z,14.10
2023-09-30T18:04:12.283Z,13.93
2023-09-30T18:09:18.130Z,13.75
2023-09-30T18:14:23.819Z,13.56
2023-09-30T18:19:29.642Z,13.40
2023-09-30T18:24:35.370Z,13.24
2023-09-30T18:29:42.469Z,13.10
2023-09-30T18:34:48.301Z,12.97
2023-09-30T18:39:54.885Z,12.86
2023-09-30T18:45:00.849Z,12.73
2023-09-30T18:50:07.754Z,12.61
2023-09-30T18:55:13.876Z,12.45
2023-09-30T19:00:19.798Z,12.30
2023-09-30T19:05:26.300Z,12.15
2023-09-30T19:10:32.379Z,12.02
2023-09-30T19:15:38.354Z,11.88
2023-09-30T19:20:47.931Z,11.74
2023-09-30T19:25:55.101Z,11.61
2023-09-30T19:31:01.066Z,11.52
2023-09-30T19:36:10.406Z,11.43
2023-09-30T19:41:21.930Z,11.33
2023-09-30T19:46:27.849Z,11.21
2023-09-30T19:51:33.693Z,11.11
2023-09-30T19:56:39.319Z,11.01
2023-09-30T20:01:45.548Z,10.93
2023-09-30T20:06:51.569Z,10.85
2023-09-30T20:12:03.950Z,10.78
2023-09-30T20:17:10.177Z,10.73
2023-09-30T20:22:16.013Z,10.66
2023-09-30T20:27:21.709Z,10.57
2023-09-30T20:32:27.856Z,10.49
2023-09-30T20:37:33.731Z,10.42
2023-09-30T20:42:41.053Z,10.33
2023-09-30T20:47:46.854Z,10.24
2023-09-30T20:52:52.822Z,10.16
2023-09-30T20:57:59.223Z,10.10
2023-09-30T21:03:05.399Z,10.05
2023-09-30T21:08:11.326Z,10.04
2023-09-30T21:13:16.912Z,10.04
2023-09-30T21:18:22.574Z,10.05
2023-09-30T21:23:28.227Z,10.05
2023-09-30T21:28:34.429Z,10.05
2023-09-30T21:33:40.041Z,10.01
2023-09-30T21:38:47.022Z,9.96
2023-09-30T21:43:52.663Z,9.94
2023-09-30T21:48:58.850Z,9.91
2023-09-30T21:54:04.900Z,9.90
2023-09-30T21:59:10.491Z,9.93
2023-09-30T22:04:18.032Z,9.99
2023-09-30T22:09:24.384Z,10.06
2023-09-30T22:14:30.300Z,10.13
2023-09-30T22:19:35.965Z,10.19
2023-09-30T22:24:41.526Z,10.22
2023-09-30T22:29:50.402Z,10.25
2023-09-30T22:34:56.209Z,10.30
2023-09-30T22:40:01.820Z,10.35
2023-09-30T22:45:09.692Z,10.39
2023-09-30T22:50:16.392Z,10.42
2023-09-30T22:55:23.164Z,10.43
2023-09-30T23:00:29.405Z,10.43
2023-09-30T23:05:34.924Z,10.43
2023-09-30T23:10:40.588Z,10.44
2023-09-30T23:15:46.592Z,10.49
2023-09-30T23:20:52.318Z,10.56
2023-09-30T23:25:58.150Z,10.64
2023-09-30T23:31:04.987Z,10.69
2023-09-30T23:36:13.540Z,10.71
2023-09-30T23:41:20.033Z,10.76
2023-09-30T23:46:26.628Z,10.80
2023-09-30T23:51:32.386Z,10.79
2023-09-30T23:56:39.922Z,10.74
